Time;durP1;ratioP1;P1;durP2;ratioP2;P2;SDS_P1;SDS_P2;PMS_P1;PMS_P2;Temp;Humidity;BMP_temperature;BMP_pressure;BME280_temperature;BME280_humidity;BME280_pressure;Samples;Min_cycle;Max_cycle;Signal;HPM_P1;HPM_P2
2022/09/10 00:01:27;;;;;;;13.00;4.43;;;;;;;14.69;100.00;100774.69;5050018;28;20095;-48
2022/09/10 00:03:56;;;;;;;9.40;4.43;;;;;;;14.74;100.00;100774.34;5051231;28;20036;-47
2022/09/10 00:06:27;;;;;;;12.50;4.40;;;;;;;14.77;100.00;100783.81;5048962;28;20049;-46
2022/09/10 00:08:56;;;;;;;12.10;4.40;;;;;;;14.77;100.00;100779.34;5051176;28;20077;-52
2022/09/10 00:11:25;;;;;;;11.60;4.30;;;;;;;14.79;100.00;100777.44;5050415;28;20083;-48
2022/09/10 00:13:54;;;;;;;10.75;4.30;;;;;;;14.81;100.00;100778.13;5050348;28;20096;-49
2022/09/10 00:16:22;;;;;;;11.88;4.10;;;;;;;14.77;100.00;100774.06;5049393;28;20076;-48
2022/09/10 00:18:50;;;;;;;12.55;4.30;;;;;;;14.80;100.00;100780.91;5050676;28;20433;-52
2022/09/10 00:21:20;;;;;;;10.98;3.78;;;;;;;14.83;100.00;100773.56;5048554;28;20061;-48
2022/09/10 00:23:49;;;;;;;9.80;3.55;;;;;;;14.83;100.00;100780.66;5050607;28;20114;-47
2022/09/10 00:26:20;;;;;;;12.80;4.45;;;;;;;14.90;100.00;100784.44;5050161;28;20052;-48
2022/09/10 00:28:49;;;;;;;11.02;3.97;;;;;;;14.88;100.00;100778.47;5049711;28;20055;-52
2022/09/10 00:31:18;;;;;;;9.70;4.35;;;;;;;14.88;100.00;100773.16;5049271;28;20149;-47
2022/09/10 00:33:46;;;;;;;12.88;4.57;;;;;;;14.91;100.00;100775.53;5050558;28;20495;-50
2022/09/10 00:36:16;;;;;;;12.13;4.72;;;;;;;14.98;100.00;100775.88;5048174;28;20891;-52
2022/09/10 00:38:44;;;;;;;9.63;4.15;;;;;;;14.98;100.00;100779.38;5050594;28;20102;-49
2022/09/10 00:41:14;;;;;;;11.75;4.88;;;;;;;15.01;100.00;100767.66;5049632;28;20041;-50
2022/09/10 00:43:51;;;;;;;11.52;5.28;;;;;;;15.01;100.00;100773.81;5050276;28;20041;-49
2022/09/10 00:46:28;;;;;;;10.73;4.80;;;;;;;15.02;100.00;100766.69;5048207;28;20478;-49
2022/09/10 00:48:59;;;;;;;12.57;4.85;;;;;;;14.90;100.00;100768.56;5050269;28;20098;-51
2022/09/10 00:51:30;;;;;;;12.18;6.22;;;;;;;14.89;100.00;100769.56;5048285;28;20439;-51
2022/09/10 00:53:59;;;;;;;13.65;5.85;;;;;;;14.94;100.00;100766.50;5050119;28;20048;-51
2022/09/10 00:56:29;;;;;;;14.65;6.28;;;;;;;14.98;100.00;100762.63;5049529;28;20037;-52
2022/09/10 00:58:58;;;;;;;15.23;6.68;;;;;;;14.93;100.00;100764.81;5050319;28;20072;-51
2022/09/10 01:01:26;;;;;;;13.30;7.03;;;;;;;14.91;100.00;100758.84;5048991;28;20041;-51
2022/09/10 01:03:55;;;;;;;14.07;7.18;;;;;;;14.96;100.00;100768.06;5050303;28;20112;-53
2022/09/10 01:06:23;;;;;;;15.93;8.15;;;;;;;14.99;100.00;100767.78;5047086;28;20135;-51
2022/09/10 01:08:52;;;;;;;15.38;7.80;;;;;;;15.01;100.00;100771.16;5050357;28;20055;-50
2022/09/10 01:11:42;;;;;;;18.63;8.40;;;;;;;15.01;100.00;100765.00;5048563;28;20045;-47
2022/09/10 01:14:43;;;;;;;15.35;7.95;;;;;;;15.03;100.00;100769.22;5049760;28;20044;-50
2022/09/10 01:17:24;;;;;;;16.33;8.50;;;;;;;15.05;100.00;100774.38;5049751;28;20480;-47
2022/09/10 01:20:26;;;;;;;17.88;9.90;;;;;;;15.09;100.00;100767.00;5049009;28;20862;-50
2022/09/10 01:23:12;;;;;;;15.02;9.27;;;;;;;15.12;100.00;100769.38;5046877;28;20411;-49
2022/09/10 01:25:55;;;;;;;17.42;9.38;;;;;;;15.10;100.00;100774.00;5049899;28;20495;-49
2022/09/10 01:28:30;;;;;;;14.70;9.80;;;;;;;15.14;100.00;100772.75;5052624;28;20067;-52
2022/09/10 01:31:02;;;;;;;16.27;10.35;;;;;;;15.14;100.00;100764.81;5069621;28;20072;-52
2022/09/10 01:33:34;;;;;;;14.00;9.30;;;;;;;15.14;100.00;100778.88;5069733;28;20048;-50
2022/09/10 01:36:08;;;;;;;16.50;10.05;;;;;;;15.17;100.00;100780.44;5068101;28;20048;-49
2022/09/10 01:38:38;;;;;;;18.80;11.43;;;;;;;15.17;100.00;100781.28;5066802;28;20033;-51
2022/09/10 01:41:06;;;;;;;14.98;10.20;;;;;;;15.18;100.00;100771.53;5051416;28;20049;-52
2022/09/10 01:43:36;;;;;;;16.20;10.80;;;;;;;15.18;100.00;100775.00;5053839;28;20087;-49
2022/09/10 01:46:21;;;;;;;16.63;11.05;;;;;;;15.15;100.00;100769.16;5052048;28;20478;-50
2022/09/10 01:49:03;;;;;;;16.55;10.40;;;;;;;15.23;100.00;100774.63;5053773;28;20055;-51
2022/09/10 01:51:47;;;;;;;18.13;10.98;;;;;;;15.25;100.00;100777.13;5052004;28;20110;-52
2022/09/10 01:54:34;;;;;;;17.70;10.63;;;;;;;15.26;100.00;100776.19;5052129;28;20140;-47
2022/09/10 01:57:10;;;;;;;17.83;11.32;;;;;;;15.24;100.00;100778.09;5053968;28;20132;-48
2022/09/10 01:59:47;;;;;;;21.35;11.40;;;;;;;15.29;100.00;100779.38;5053362;28;20044;-50
2022/09/10 02:02:20;;;;;;;19.50;10.95;;;;;;;15.33;100.00;100780.78;5052594;28;20120;-49
2022/09/10 02:04:50;;;;;;;15.20;10.63;;;;;;;15.31;100.00;100772.16;5046818;28;20439;-47
2022/09/10 02:07:21;;;;;;;18.58;10.95;;;;;;;15.32;100.00;100776.47;5052358;28;20041;-48
2022/09/10 02:09:50;;;;;;;17.17;10.90;;;;;;;15.22;100.00;100772.94;5053411;28;20056;-51
2022/09/10 02:12:20;;;;;;;16.27;10.98;;;;;;;15.31;100.00;100774.81;5053400;28;20044;-48
2022/09/10 02:14:50;;;;;;;19.88;11.75;;;;;;;15.33;100.00;100775.50;5052866;28;20077;-49
2022/09/10 02:17:19;;;;;;;15.75;10.48;;;;;;;15.31;100.00;100772.16;5053410;28;20095;-50
2022/09/10 02:19:50;;;;;;;19.27;11.45;;;;;;;15.21;100.00;100769.47;5052918;28;20368;-51
2022/09/10 02:22:19;;;;;;;21.92;11.50;;;;;;;15.26;100.00;100777.00;5053103;28;20103;-47
2022/09/10 02:24:47;;;;;;;16.63;11.55;;;;;;;15.25;100.00;100777.13;5053451;28;20060;-50
2022/09/10 02:27:15;;;;;;;17.30;11.55;;;;;;;15.36;100.00;100775.22;5053092;28;20043;-49
2022/09/10 02:29:43;;;;;;;21.67;11.60;;;;;;;15.36;100.00;100771.75;5052353;28;20103;-48
2022/09/10 02:32:12;;;;;;;17.65;12.00;;;;;;;15.29;100.00;100771.44;5032972;28;20387;-49
2022/09/10 02:34:40;;;;;;;19.33;12.45;;;;;;;15.26;100.00;100768.22;5032344;28;20136;-50
2022/09/10 02:37:08;;;;;;;20.77;12.85;;;;;;;15.27;100.00;100775.19;5031337;28;20046;-50
2022/09/10 02:39:38;;;;;;;19.30;13.48;;;;;;;15.30;100.00;100764.34;5033386;28;20050;-46
2022/09/10 02:42:07;;;;;;;17.23;12.85;;;;;;;15.38;100.00;100768.00;5042050;28;20495;-50
2022/09/10 02:44:35;;;;;;;19.88;13.68;;;;;;;15.35;100.00;100762.97;5052341;28;20052;-50
2022/09/10 02:47:04;;;;;;;18.00;13.27;;;;;;;15.40;100.00;100765.19;5046204;28;20049;-47
2022/09/10 02:49:34;;;;;;;16.42;12.60;;;;;;;15.40;100.00;100764.38;5033151;28;20095;-50
2022/09/10 02:52:03;;;;;;;19.58;13.00;;;;;;;15.36;100.00;100767.28;5037121;28;20069;-52
2022/09/10 02:54:31;;;;;;;19.73;13.15;;;;;;;15.38;100.00;100765.34;5052475;28;20128;-51
2022/09/10 02:56:59;;;;;;;18.85;12.90;;;;;;;15.42;100.00;100768.56;5052177;28;20044;-51
2022/09/10 02:59:27;;;;;;;20.67;12.98;;;;;;;15.43;100.00;100772.06;5052003;28;20160;-48
2022/09/10 03:01:55;;;;;;;18.20;12.18;;;;;;;15.46;100.00;100769.13;5051868;28;20048;-50
2022/09/10 03:04:26;;;;;;;16.88;12.60;;;;;;;15.49;100.00;100766.22;5052021;28;20080;-49
2022/09/10 03:06:58;;;;;;;21.05;12.60;;;;;;;15.48;100.00;100772.50;5051016;28;20045;-51
2022/09/10 03:09:27;;;;;;;18.80;13.00;;;;;;;15.43;100.00;100769.41;5052506;28;20662;-50
2022/09/10 03:11:55;;;;;;;21.73;13.90;;;;;;;15.46;100.00;100769.97;5052802;28;20053;-49
2022/09/10 03:14:24;;;;;;;21.15;13.65;;;;;;;15.45;100.00;100778.06;5051871;28;20111;-50
2022/09/10 03:16:52;;;;;;;20.00;13.23;;;;;;;15.42;100.00;100768.56;5050391;28;20069;-51
2022/09/10 03:19:20;;;;;;;19.10;13.65;;;;;;;15.38;100.00;100765.34;5051227;28;20546;-50
2022/09/10 03:21:48;;;;;;;22.35;13.43;;;;;;;15.41;100.00;100771.38;5050491;28;20148;-48
2022/09/10 03:24:21;;;;;;;16.77;12.88;;;;;;;15.43;100.00;100769.41;5051818;28;20044;-51
2022/09/10 03:26:51;;;;;;;18.48;12.85;;;;;;;15.43;100.00;100764.94;5052362;28;20499;-50
2022/09/10 03:29:21;;;;;;;18.65;13.05;;;;;;;15.49;100.00;100766.22;5051534;28;20347;-48
2022/09/10 03:31:50;;;;;;;17.92;13.10;;;;;;;15.43;100.00;100769.41;5051413;28;20399;-53
2022/09/10 03:34:19;;;;;;;17.63;13.05;;;;;;;15.44;100.00;100763.97;5051222;28;20065;-51
2022/09/10 03:36:47;;;;;;;18.50;13.10;;;;;;;15.45;100.00;100776.25;5049958;28;20049;-50
2022/09/10 03:39:17;;;;;;;18.45;12.93;;;;;;;15.51;100.00;100765.09;5050087;28;20044;-50
2022/09/10 03:41:47;;;;;;;18.38;12.75;;;;;;;15.51;100.00;100764.28;5052058;28;20041;-50
2022/09/10 03:44:16;;;;;;;15.65;12.45;;;;;;;15.51;100.00;100766.91;5051660;28;20045;-52
2022/09/10 03:46:44;;;;;;;17.60;12.25;;;;;;;15.46;100.00;100764.69;5051061;28;20127;-53
2022/09/10 03:49:12;;;;;;;19.30;12.45;;;;;;;15.43;100.00;100756.16;5051752;28;20047;-51
2022/09/10 03:51:40;;;;;;;17.90;12.30;;;;;;;15.44;100.00;100757.84;5049865;28;20491;-50
2022/09/10 03:54:08;;;;;;;18.02;11.90;;;;;;;15.44;100.00;100758.66;5051384;28;20064;-51
2022/09/10 03:56:36;;;;;;;18.92;12.60;;;;;;;15.47;100.00;100754.91;5051959;28;20430;-52
2022/09/10 03:59:05;;;;;;;17.60;12.63;;;;;;;15.47;100.00;100760.22;5051694;28;20053;-46
2022/09/10 04:01:33;;;;;;;16.85;12.23;;;;;;;15.52;100.00;100760.66;5050876;28;20422;-48
2022/09/10 04:04:02;;;;;;;15.90;12.88;;;;;;;15.51;100.00;100761.63;5050753;28;20407;-48
2022/09/10 04:06:31;;;;;;;16.85;12.68;;;;;;;15.52;100.00;100756.19;5047537;28;20056;-51
2022/09/10 04:09:00;;;;;;;17.75;12.68;;;;;;;15.50;100.00;100766.09;5051545;28;20045;-49
2022/09/10 04:11:28;;;;;;;18.90;13.05;;;;;;;15.50;100.00;100760.78;5051128;28;20140;-48
2022/09/10 04:13:56;;;;;;;17.60;12.15;;;;;;;15.46;100.00;100753.22;5051320;28;20037;-52
2022/09/10 04:16:26;;;;;;;18.10;13.30;;;;;;;15.41;100.00;100758.13;5050327;28;20495;-50
2022/09/10 04:18:56;;;;;;;17.52;13.40;;;;;;;15.45;100.00;100756.88;5051141;28;20051;-53
2022/09/10 04:21:24;;;;;;;18.40;12.70;;;;;;;15.48;100.00;100757.44;5050253;28;20041;-51
2022/09/10 04:23:58;;;;;;;18.88;12.57;;;;;;;15.52;100.00;100764.13;5050157;28;20442;-51
2022/09/10 04:26:26;;;;;;;18.38;13.13;;;;;;;15.47;100.00;100763.69;5040428;28;20053;-49
2022/09/10 04:28:54;;;;;;;18.00;13.18;;;;;;;15.45;100.00;100759.53;5050590;28;20099;-48
2022/09/10 04:31:22;;;;;;;21.05;12.60;;;;;;;15.49;100.00;100755.63;5049906;28;20053;-48
2022/09/10 04:33:52;;;;;;;16.60;12.32;;;;;;;15.47;100.00;100765.50;5050351;28;20045;-49
2022/09/10 04:36:20;;;;;;;16.52;12.27;;;;;;;15.43;100.00;100758.81;5047231;28;20113;-52
2022/09/10 04:38:48;;;;;;;16.45;12.48;;;;;;;15.41;100.00;100755.47;5050918;28;20076;-50
2022/09/10 04:41:18;;;;;;;17.27;13.07;;;;;;;15.44;100.00;100761.31;5050850;28;20053;-52
2022/09/10 04:43:46;;;;;;;16.05;12.40;;;;;;;15.54;100.00;100758.69;5050946;28;20107;-52
2022/09/10 04:46:14;;;;;;;21.10;12.00;;;;;;;15.56;100.00;100759.41;5050819;28;20075;-51
2022/09/10 04:48:42;;;;;;;13.75;11.73;;;;;;;15.52;100.00;100765.97;5050009;28;20456;-50
2022/09/10 04:51:12;;;;;;;13.98;11.20;;;;;;;15.51;100.00;100765.09;5047638;28;20083;-49
2022/09/10 04:53:44;;;;;;;17.25;11.25;;;;;;;15.57;100.00;100765.53;5050761;28;20083;-48
2022/09/10 04:56:13;;;;;;;15.52;11.25;;;;;;;15.61;100.00;100759.84;5050150;28;20124;-49
2022/09/10 04:58:42;;;;;;;14.75;11.40;;;;;;;15.59;100.00;100764.44;5049321;28;20452;-51
2022/09/10 05:01:11;;;;;;;15.02;11.20;;;;;;;15.52;100.00;100760.66;5048537;28;20056;-48
2022/09/10 05:03:40;;;;;;;15.55;11.85;;;;;;;15.53;100.00;100765.81;5049057;28;20202;-48
2022/09/10 05:06:08;;;;;;;15.43;11.82;;;;;;;15.59;100.00;100767.09;5045565;28;20073;-48
2022/09/10 05:08:37;;;;;;;14.15;10.82;;;;;;;15.59;100.00;100768.91;5047711;28;20073;-49
2022/09/10 05:11:09;;;;;;;14.05;10.80;;;;;;;15.60;100.00;100768.78;5045126;28;20049;-49
2022/09/10 05:13:37;;;;;;;16.98;11.35;;;;;;;15.55;100.00;100769.16;5030498;28;20052;-51
2022/09/10 05:16:05;;;;;;;16.25;11.52;;;;;;;15.61;100.00;100770.47;5028274;28;20171;-49
2022/09/10 05:18:33;;;;;;;15.13;10.95;;;;;;;15.62;100.00;100756.22;5037684;28;20033;-47
2022/09/10 05:21:01;;;;;;;15.50;10.65;;;;;;;15.61;100.00;100762.50;5039452;28;20080;-49
2022/09/10 05:23:29;;;;;;;13.95;10.30;;;;;;;15.61;100.00;100764.31;5049807;28;20047;-46
2022/09/10 05:25:58;;;;;;;13.98;10.45;;;;;;;15.62;100.00;100769.47;5050309;28;20100;-49
2022/09/10 05:28:26;;;;;;;14.68;10.15;;;;;;;15.69;100.00;100765.31;5049609;28;20045;-50
2022/09/10 05:30:54;;;;;;;13.77;10.32;;;;;;;15.64;100.00;100766.69;5049594;28;20041;-49
2022/09/10 05:33:22;;;;;;;14.50;10.15;;;;;;;15.67;100.00;100764.59;5049273;28;20056;-51
2022/09/10 05:35:51;;;;;;;13.88;10.07;;;;;;;15.74;100.00;100772.03;5048714;28;20082;-49
2022/09/10 05:38:20;;;;;;;13.82;10.35;;;;;;;15.60;100.00;100765.25;5046944;28;20124;-47
2022/09/10 05:40:49;;;;;;;15.52;10.98;;;;;;;15.65;100.00;100769.22;5049732;28;20563;-50
2022/09/10 05:43:18;;;;;;;14.98;11.43;;;;;;;15.60;100.00;100768.78;5049659;28;20499;-48
2022/09/10 05:45:47;;;;;;;15.93;10.85;;;;;;;15.65;100.00;100769.22;5049454;28;20627;-49
2022/09/10 05:48:15;;;;;;;14.80;10.95;;;;;;;15.68;100.00;100766.28;5049859;28;20123;-50
2022/09/10 05:50:45;;;;;;;14.13;11.38;;;;;;;15.67;100.00;100763.78;5048669;28;20107;-49
2022/09/10 05:53:13;;;;;;;15.10;11.40;;;;;;;15.77;100.00;100753.19;5049398;28;20048;-51
2022/09/10 05:55:42;;;;;;;16.63;11.60;;;;;;;15.83;100.00;100758.81;5049636;28;20044;-52
2022/09/10 05:58:12;;;;;;;15.93;11.20;;;;;;;15.86;100.00;100763.84;5049535;28;20056;-48
2022/09/10 06:00:43;;;;;;;17.33;11.50;;;;;;;15.87;100.00;100762.88;5048866;28;20056;-49
2022/09/10 06:03:11;;;;;;;17.60;11.90;;;;;;;15.93;100.00;100766.78;5049625;28;20157;-48
2022/09/10 06:05:39;;;;;;;17.30;11.85;;;;;;;15.91;100.00;100770.56;5048786;28;20045;-48
2022/09/10 06:08:07;;;;;;;18.52;12.07;;;;;;;15.81;100.00;100773.19;5049541;28;20506;-48
2022/09/10 06:10:36;;;;;;;15.80;11.77;;;;;;;15.83;100.00;100772.06;5049772;28;20380;-51
2022/09/10 06:13:04;;;;;;;17.77;12.52;;;;;;;15.84;100.00;100767.59;5049546;28;20084;-49
2022/09/10 06:15:34;;;;;;;19.98;11.82;;;;;;;15.86;100.00;100760.38;5044731;28;20080;-48
2022/09/10 06:18:04;;;;;;;16.42;12.13;;;;;;;15.83;100.00;100761.47;5045622;28;20049;-47
2022/09/10 06:20:32;;;;;;;19.13;12.05;;;;;;;15.81;100.00;100759.94;5042932;28;20075;-46
2022/09/10 06:23:02;;;;;;;15.20;11.80;;;;;;;15.68;100.00;100770.75;5042588;28;20546;-48
2022/09/10 06:25:31;;;;;;;19.45;12.45;;;;;;;15.54;100.00;100761.34;5045585;28;20073;-46
2022/09/10 06:28:00;;;;;;;14.73;11.80;;;;;;;15.54;100.00;100767.50;5045872;28;20060;-46
2022/09/10 06:30:28;;;;;;;15.55;11.73;;;;;;;15.54;100.00;100766.66;5044558;28;20442;-46
2022/09/10 06:32:56;;;;;;;17.13;12.45;;;;;;;15.50;100.00;100763.44;5051782;28;20049;-47
2022/09/10 06:35:26;;;;;;;17.50;10.98;;;;;;;15.47;100.00;100758.38;5051664;28;20079;-46
2022/09/10 06:37:54;;;;;;;14.77;10.27;;;;;;;15.46;100.00;100761.19;5052968;28;20045;-47
2022/09/10 06:40:22;;;;;;;14.48;10.80;;;;;;;15.33;100.00;100751.66;5052679;28;20537;-46
2022/09/10 06:42:50;;;;;;;16.92;11.60;;;;;;;15.34;100.00;100755.16;5053190;28;20949;-47
2022/09/10 06:45:18;;;;;;;17.90;11.55;;;;;;;15.26;100.00;100761.09;5051924;28;20056;-46
2022/09/10 06:47:46;;;;;;;15.68;12.18;;;;;;;15.20;100.00;100753.69;5053021;28;20041;-50
2022/09/10 06:50:38;;;;;;;15.88;12.27;;;;;;;15.18;100.00;100751.16;5050791;28;20037;-47
2022/09/10 06:53:06;;;;;;;15.23;11.32;;;;;;;15.09;100.00;100754.59;5052942;28;20389;-48
2022/09/10 06:55:35;;;;;;;16.38;12.55;;;;;;;15.15;100.00;100755.91;5052185;28;20394;-50
2022/09/10 06:58:03;;;;;;;17.52;12.82;;;;;;;15.20;100.00;100758.97;5052604;28;20106;-49
2022/09/10 07:00:31;;;;;;;17.05;13.35;;;;;;;15.19;100.00;100760.78;5051338;28;20041;-47
2022/09/10 07:02:59;;;;;;;19.33;12.82;;;;;;;15.20;100.00;100762.47;5052553;28;20495;-48
2022/09/10 07:05:28;;;;;;;16.25;13.50;;;;;;;15.24;100.00;100764.84;5050993;28;20106;-47
2022/09/10 07:07:57;;;;;;;16.98;12.90;;;;;;;15.25;100.00;100767.38;5052551;28;20052;-46
2022/09/10 07:10:26;;;;;;;19.27;13.05;;;;;;;15.34;100.00;100777.19;5052318;28;20132;-49
2022/09/10 07:12:59;;;;;;;17.92;13.23;;;;;;;15.31;100.00;100774.81;5048052;28;20519;-46
2022/09/10 07:15:28;;;;;;;23.13;14.55;;;;;;;15.35;100.00;100778.88;5047259;28;20098;-46
2022/09/10 07:17:56;;;;;;;20.77;14.40;;;;;;;15.35;100.00;100778.88;5048050;28;20045;-48
2022/09/10 07:20:24;;;;;;;22.23;15.27;;;;;;;15.33;100.00;100783.44;5045992;28;20087;-48
2022/09/10 07:22:54;;;;;;;21.35;15.10;;;;;;;15.40;100.00;100780.28;5047090;28;20067;-49
2022/09/10 07:25:24;;;;;;;19.88;14.73;;;;;;;15.40;100.00;100786.41;5046881;28;20049;-48
2022/09/10 07:27:53;;;;;;;23.02;15.77;;;;;;;15.37;100.00;100787.50;5047632;28;20119;-48
2022/09/10 07:30:22;;;;;;;20.52;15.48;;;;;;;15.38;100.00;100794.50;5045959;28;20048;-48
2022/09/10 07:32:50;;;;;;;20.45;14.77;;;;;;;15.43;100.00;100801.19;5060369;28;20107;-51
2022/09/10 07:35:20;;;;;;;21.67;16.10;;;;;;;15.41;100.00;100795.22;5044936;28;20037;-51
2022/09/10 07:37:48;;;;;;;20.52;16.00;;;;;;;15.40;100.00;100793.53;5047898;28;21316;-48
2022/09/10 07:40:17;;;;;;;20.48;16.13;;;;;;;15.44;100.00;100802.88;5047346;28;20515;-50
2022/09/10 07:42:46;;;;;;;19.52;15.35;;;;;;;15.48;100.00;100796.34;5047903;28;20068;-48
2022/09/10 07:45:17;;;;;;;23.52;16.30;;;;;;;15.49;100.00;100800.69;5050035;28;20695;-51
2022/09/10 07:47:47;;;;;;;18.15;15.43;;;;;;;15.53;100.00;100792.31;5052230;28;20049;-47
2022/09/10 07:50:15;;;;;;;25.02;16.60;;;;;;;15.51;100.00;100796.91;5050208;28;20041;-51
2022/09/10 07:52:43;;;;;;;24.17;16.40;;;;;;;15.53;100.00;100796.78;5050556;28;20052;-49
2022/09/10 07:55:12;;;;;;;19.45;16.13;;;;;;;15.57;100.00;100803.50;5050297;28;20060;-49
2022/09/10 07:57:40;;;;;;;22.98;15.75;;;;;;;15.51;100.00;100798.72;5051527;28;20059;-53
2022/09/10 08:00:14;;;;;;;22.20;15.32;;;;;;;15.52;100.00;100806.53;5050547;28;20047;-52
2022/09/10 08:02:42;;;;;;;23.77;16.45;;;;;;;15.53;100.00;100805.56;5051021;28;20040;-48
2022/09/10 08:05:12;;;;;;;20.77;15.07;;;;;;;15.60;100.00;100808.53;5049963;28;20039;-52
2022/09/10 08:07:43;;;;;;;19.80;15.77;;;;;;;15.64;100.00;100801.16;5051601;28;20053;-50
2022/09/10 08:10:12;;;;;;;21.58;15.27;;;;;;;15.68;100.00;100807.88;5050960;28;20052;-47
2022/09/10 08:12:40;;;;;;;23.58;16.17;;;;;;;15.76;100.00;100802.72;5051068;28;20049;-47
2022/09/10 08:15:10;;;;;;;22.20;15.77;;;;;;;15.75;100.00;100811.66;5065098;28;20101;-50
2022/09/10 08:17:39;;;;;;;20.33;15.98;;;;;;;15.80;100.00;100813.91;5071582;28;20530;-52
2022/09/10 08:20:08;;;;;;;20.38;14.82;;;;;;;15.84;100.00;100815.34;5070324;28;20041;-52
2022/09/10 08:22:36;;;;;;;20.20;15.32;;;;;;;15.89;100.00;100824.56;5060568;28;20056;-49
2022/09/10 08:25:08;;;;;;;18.40;15.13;;;;;;;15.95;100.00;100823.19;5038873;28;20041;-50
2022/09/10 08:27:37;;;;;;;19.70;14.77;;;;;;;15.97;100.00;100823.88;5039903;28;20102;-47
2022/09/10 08:30:06;;;;;;;20.30;14.93;;;;;;;16.05;100.00;100829.34;5050350;28;20045;-52
2022/09/10 08:32:35;;;;;;;18.02;14.90;;;;;;;16.03;100.00;100830.47;5050740;28;20507;-48
2022/09/10 08:35:04;;;;;;;20.17;14.60;;;;;;;16.00;100.00;100836.88;5042500;28;20049;-51
2022/09/10 08:37:33;;;;;;;18.27;14.02;;;;;;;16.05;100.00;100839.97;5048794;28;20037;-52
2022/09/10 08:40:02;;;;;;;17.80;14.27;;;;;;;16.10;100.00;100836.91;5050225;28;20094;-49
2022/09/10 08:42:38;;;;;;;17.05;13.70;;;;;;;16.13;100.00;100835.78;5049092;28;20049;-50
2022/09/10 08:45:12;;;;;;;15.73;13.27;;;;;;;16.15;100.00;100839.16;5045135;28;20045;-49
2022/09/10 08:47:52;;;;;;;13.90;12.32;;;;;;;16.18;100.00;100845.03;5045382;28;20040;-49
2022/09/10 08:50:32;;;;;;;14.73;12.88;;;;;;;16.22;100.00;100837.63;5031423;28;20411;-51
2022/09/10 08:53:09;;;;;;;17.90;13.60;;;;;;;16.23;100.00;100834.81;5036250;28;20056;-53
2022/09/10 08:55:40;;;;;;;18.60;14.32;;;;;;;16.36;100.00;100839.88;5030180;28;20495;-50
2022/09/10 08:58:19;;;;;;;17.40;14.75;;;;;;;16.48;100.00;100845.06;5030198;28;20050;-51
2022/09/10 09:00:53;;;;;;;19.80;15.68;;;;;;;16.66;100.00;100846.06;5040436;28;20123;-50
2022/09/10 09:03:27;;;;;;;17.95;15.02;;;;;;;16.73;100.00;100841.03;5050148;28;20495;-52
2022/09/10 09:05:58;;;;;;;15.55;13.43;;;;;;;16.70;100.00;100849.25;5049328;28;20460;-51
2022/09/10 09:08:29;;;;;;;17.42;13.48;;;;;;;16.75;100.00;100856.81;5049953;28;20125;-51
2022/09/10 09:11:09;;;;;;;16.42;14.57;;;;;;;16.76;100.00;100854.03;5050426;28;20083;-50
2022/09/10 09:13:52;;;;;;;16.52;14.57;;;;;;;16.73;100.00;100849.81;5048966;28;20514;-49
2022/09/10 09:16:32;;;;;;;17.70;14.73;;;;;;;16.81;100.00;100853.59;5048593;28;20048;-53
2022/09/10 09:19:14;;;;;;;16.98;14.20;;;;;;;16.76;100.00;100847.88;5036847;28;20098;-50
2022/09/10 09:21:51;;;;;;;18.13;14.50;;;;;;;16.91;100.00;100851.81;5048538;28;20461;-52
2022/09/10 09:24:24;;;;;;;17.48;14.13;;;;;;;16.92;100.00;100849.97;5045360;28;20118;-52
2022/09/10 09:27:01;;;;;;;15.90;14.20;;;;;;;16.93;100.00;100843.69;5050291;28;20122;-53
2022/09/10 09:29:36;;;;;;;17.35;15.55;;;;;;;16.93;100.00;100865.78;5049158;28;20136;-53
2022/09/10 09:32:06;;;;;;;19.60;16.45;;;;;;;17.02;100.00;100851.66;5050439;28;20044;-51
2022/09/10 09:34:39;;;;;;;17.50;15.73;;;;;;;17.08;100.00;100858.22;5046635;28;20045;-48
2022/09/10 09:37:18;;;;;;;18.65;16.52;;;;;;;17.21;100.00;100861.41;5048722;28;20406;-49
2022/09/10 09:39:58;;;;;;;18.75;16.48;;;;;;;17.45;100.00;100851.28;5049999;28;20049;-50
2022/09/10 09:42:36;;;;;;;20.20;18.13;;;;;;;17.60;100.00;100859.63;5049759;28;20136;-51
2022/09/10 09:45:16;;;;;;;22.17;18.45;;;;;;;17.79;100.00;100854.22;5049403;28;20072;-53
2022/09/10 09:47:44;;;;;;;19.67;17.60;;;;;;;17.87;100.00;100853.50;5045242;28;20503;-47
2022/09/10 09:50:17;;;;;;;17.95;15.98;;;;;;;17.89;100.00;100859.53;5043995;28;20033;-48
2022/09/10 09:52:46;;;;;;;19.65;17.55;;;;;;;17.99;100.00;100860.31;5043274;28;20057;-52
2022/09/10 09:55:27;;;;;;;17.92;16.08;;;;;;;18.07;100.00;100857.75;5046170;28;20070;-48
2022/09/10 09:58:28;;;;;;;17.95;16.15;;;;;;;18.07;100.00;100865.72;5043714;28;20072;-47
2022/09/10 10:01:11;;;;;;;14.20;11.55;;;;;;;17.83;100.00;100874.25;5045248;28;20099;-47
2022/09/10 10:03:49;;;;;;;12.80;9.98;;;;;;;17.59;100.00;100874.75;5048754;28;20575;-49
2022/09/10 10:06:21;;;;;;;13.98;10.80;;;;;;;17.48;100.00;100867.78;5060538;28;20068;-48
2022/09/10 10:08:55;;;;;;;13.67;10.70;;;;;;;17.40;100.00;100873.00;5047742;28;20048;-50
2022/09/10 10:11:40;;;;;;;11.40;9.80;;;;;;;17.33;100.00;100879.84;5049569;28;20086;-48
2022/09/10 10:14:14;;;;;;;13.73;9.93;;;;;;;17.37;100.00;100884.75;5052822;28;20217;-47
2022/09/10 10:16:42;;;;;;;12.80;10.60;;;;;;;17.35;100.00;100875.22;5046001;28;20089;-51
2022/09/10 10:19:30;;;;;;;11.88;10.50;;;;;;;17.43;100.00;100877.19;5047481;28;20061;-49
2022/09/10 10:22:21;;;;;;;13.27;10.32;;;;;;;17.48;100.00;100869.59;5043081;28;20049;-50
2022/09/10 10:24:52;;;;;;;13.50;10.45;;;;;;;17.48;100.00;100869.59;5050199;28;20041;-52
2022/09/10 10:27:28;;;;;;;12.68;11.38;;;;;;;17.45;100.00;100865.44;5053136;28;20110;-51
2022/09/10 10:30:00;;;;;;;13.05;11.20;;;;;;;17.37;100.00;100865.31;5052512;28;20462;-52
2022/09/10 10:32:39;;;;;;;11.75;10.52;;;;;;;17.39;100.00;100871.31;5052859;28;20049;-50
2022/09/10 10:35:29;;;;;;;12.13;9.30;;;;;;;17.46;100.00;100872.41;5050911;28;20088;-53
2022/09/10 10:38:28;;;;;;;8.55;7.65;;;;;;;17.50;100.00;100878.28;5052978;28;20064;-52
2022/09/10 10:41:24;;;;;;;7.45;6.00;;;;;;;17.56;100.00;100877.69;5053137;28;20143;-49
2022/09/10 10:44:03;;;;;;;8.35;6.40;;;;;;;17.54;100.00;100880.47;5051825;28;20554;-48
2022/09/10 10:46:47;;;;;;;7.38;6.55;;;;;;;17.67;100.00;100880.19;5052152;28;20466;-49
2022/09/10 10:49:27;;;;;;;9.07;7.35;;;;;;;17.69;100.00;100878.19;5052725;28;20044;-50
2022/09/10 10:52:05;;;;;;;9.48;7.55;;;;;;;17.71;100.00;100886.03;5051441;28;20523;-50
2022/09/10 10:55:01;;;;;;;9.07;7.28;;;;;;;17.77;100.00;100885.47;5052764;28;20106;-52
2022/09/10 10:57:45;;;;;;;10.68;7.20;;;;;;;17.94;100.00;100891.84;5052831;28;20131;-48
2022/09/10 11:00:17;;;;;;;8.23;6.20;;;;;;;17.97;100.00;100904.88;5052142;28;20052;-51
2022/09/10 11:02:53;;;;;;;8.07;6.90;;;;;;;18.04;100.00;100908.63;5052923;28;20565;-50
2022/09/10 11:05:29;;;;;;;9.05;7.60;;;;;;;18.27;100.00;100904.72;5051252;28;20503;-49
2022/09/10 11:08:01;;;;;;;8.60;7.40;;;;;;;18.33;100.00;100912.94;5052529;28;20091;-53
2022/09/10 11:10:38;;;;;;;9.75;8.02;;;;;;;18.57;100.00;100903.56;5052292;28;20049;-48
2022/09/10 11:13:14;;;;;;;9.75;8.75;;;;;;;18.71;100.00;100905.69;5052116;28;20403;-51
2022/09/10 11:15:48;;;;;;;8.95;7.13;;;;;;;18.73;100.00;100906.38;5051846;28;20059;-51
2022/09/10 11:18:22;;;;;;;8.00;6.68;;;;;;;18.82;100.00;100898.47;5052331;28;20045;-49
2022/09/10 11:21:02;;;;;;;7.63;6.28;;;;;;;18.92;100.00;100912.56;5050981;28;20491;-50
2022/09/10 11:23:34;;;;;;;9.50;7.38;;;;;;;18.95;100.00;100912.28;5051943;28;20380;-56
2022/09/10 11:26:11;;;;;;;8.63;6.60;;;;;;;18.89;100.00;100904.88;5052008;28;20526;-50